sensor_id;sensor_type;location;lat;lon;timestamp;P1;durP1;ratioP1;P2;durP2;ratioP2
5042;SDS011;2540;50.928;6.856;2023-09-12T00:01:56;15.40;;;6.13;;
5042;SDS011;2540;50.928;6.856;2023-09-12T00:04:22;9.50;;;5.43;;
5042;SDS011;2540;50.928;6.856;2023-09-12T00:06:47;8.53;;;5.40;;
5042;SDS011;2540;50.928;6.856;2023-09-12T00:09:12;12.80;;;6.23;;
5042;SDS011;2540;50.928;6.856;2023-09-12T00:11:38;9.57;;;6.13;;
5042;SDS011;2540;50.928;6.856;2023-09-12T00:14:03;10.63;;;7.83;;
5042;SDS011;2540;50.928;6.856;2023-09-12T00:16:29;11.03;;;6.27;;
5042;SDS011;2540;50.928;6.856;2023-09-12T00:18:54;10.70;;;6.27;;
5042;SDS011;2540;50.928;6.856;2023-09-12T00:21:19;10.37;;;7.30;;
5042;SDS011;2540;50.928;6.856;2023-09-12T00:23:45;22.20;;;8.23;;
5042;SDS011;2540;50.928;6.856;2023-09-12T00:26:10;13.57;;;8.10;;
5042;SDS011;2540;50.928;6.856;2023-09-12T00:28:35;11.43;;;7.00;;
5042;SDS011;2540;50.928;6.856;2023-09-12T00:31:02;15.07;;;8.10;;
5042;SDS011;2540;50.928;6.856;2023-09-12T00:33:27;18.90;;;8.97;;
5042;SDS011;2540;50.928;6.856;2023-09-12T00:35:53;13.60;;;8.63;;
5042;SDS011;2540;50.928;6.856;2023-09-12T00:38:18;15.00;;;8.63;;
5042;SDS011;2540;50.928;6.856;2023-09-12T00:40:43;17.10;;;8.60;;
5042;SDS011;2540;50.928;6.856;2023-09-12T00:43:09;16.00;;;8.00;;
5042;SDS011;2540;50.928;6.856;2023-09-12T00:45:35;16.50;;;8.50;;
5042;SDS011;2540;50.928;6.856;2023-09-12T00:48:01;19.80;;;9.60;;
5042;SDS011;2540;50.928;6.856;2023-09-12T00:50:27;15.13;;;8.67;;
5042;SDS011;2540;50.928;6.856;2023-09-12T00:52:53;15.90;;;9.80;;
5042;SDS011;2540;50.928;6.856;2023-09-12T00:55:19;21.00;;;11.00;;
5042;SDS011;2540;50.928;6.856;2023-09-12T00:57:44;18.90;;;9.87;;
5042;SDS011;2540;50.928;6.856;2023-09-12T01:00:11;16.30;;;10.23;;
5042;SDS011;2540;50.928;6.856;2023-09-12T01:02:41;24.20;;;10.20;;
5042;SDS011;2540;50.928;6.856;2023-09-12T01:05:07;21.23;;;12.43;;
5042;SDS011;2540;50.928;6.856;2023-09-12T01:07:33;16.43;;;10.33;;
5042;SDS011;2540;50.928;6.856;2023-09-12T01:09:59;16.70;;;10.47;;
5042;SDS011;2540;50.928;6.856;2023-09-12T01:12:24;24.57;;;11.13;;
5042;SDS011;2540;50.928;6.856;2023-09-12T01:14:49;22.57;;;10.10;;
5042;SDS011;2540;50.928;6.856;2023-09-12T01:17:15;23.20;;;12.00;;
5042;SDS011;2540;50.928;6.856;2023-09-12T01:19:40;25.30;;;11.23;;
5042;SDS011;2540;50.928;6.856;2023-09-12T01:22:12;23.43;;;12.03;;
5042;SDS011;2540;50.928;6.856;2023-09-12T01:27:47;21.73;;;10.67;;
5042;SDS011;2540;50.928;6.856;2023-09-12T01:30:16;21.77;;;11.57;;
5042;SDS011;2540;50.928;6.856;2023-09-12T01:32:42;20.20;;;11.17;;
5042;SDS011;2540;50.928;6.856;2023-09-12T01:35:08;25.20;;;11.93;;
5042;SDS011;2540;50.928;6.856;2023-09-12T01:37:34;20.00;;;12.43;;
5042;SDS011;2540;50.928;6.856;2023-09-12T01:39:59;20.77;;;11.70;;
5042;SDS011;2540;50.928;6.856;2023-09-12T01:42:26;35.27;;;13.50;;
5042;SDS011;2540;50.928;6.856;2023-09-12T01:44:54;21.60;;;12.70;;
5042;SDS011;2540;50.928;6.856;2023-09-12T01:47:21;20.80;;;12.27;;
5042;SDS011;2540;50.928;6.856;2023-09-12T01:49:48;28.37;;;13.23;;
5042;SDS011;2540;50.928;6.856;2023-09-12T01:52:14;22.87;;;12.63;;
5042;SDS011;2540;50.928;6.856;2023-09-12T01:54:40;24.80;;;12.77;;
5042;SDS011;2540;50.928;6.856;2023-09-12T01:57:06;27.83;;;14.47;;
5042;SDS011;2540;50.928;6.856;2023-09-12T01:59:33;30.63;;;14.97;;
5042;SDS011;2540;50.928;6.856;2023-09-12T02:01:58;26.07;;;13.67;;
5042;SDS011;2540;50.928;6.856;2023-09-12T02:04:24;32.07;;;14.83;;
5042;SDS011;2540;50.928;6.856;2023-09-12T02:06:49;34.13;;;15.40;;
5042;SDS011;2540;50.928;6.856;2023-09-12T02:09:15;26.67;;;15.70;;
5042;SDS011;2540;50.928;6.856;2023-09-12T02:11:40;30.37;;;15.93;;
5042;SDS011;2540;50.928;6.856;2023-09-12T02:14:06;27.40;;;14.03;;
5042;SDS011;2540;50.928;6.856;2023-09-12T02:16:31;29.60;;;15.77;;
5042;SDS011;2540;50.928;6.856;2023-09-12T02:18:56;27.23;;;15.07;;
5042;SDS011;2540;50.928;6.856;2023-09-12T02:21:22;31.30;;;15.10;;
5042;SDS011;2540;50.928;6.856;2023-09-12T02:23:47;26.30;;;15.63;;
5042;SDS011;2540;50.928;6.856;2023-09-12T02:26:12;26.60;;;14.90;;
5042;SDS011;2540;50.928;6.856;2023-09-12T02:28:39;30.53;;;15.43;;
5042;SDS011;2540;50.928;6.856;2023-09-12T02:31:10;35.93;;;15.73;;
5042;SDS011;2540;50.928;6.856;2023-09-12T02:33:37;27.27;;;13.43;;
5042;SDS011;2540;50.928;6.856;2023-09-12T02:36:03;24.30;;;15.77;;
5042;SDS011;2540;50.928;6.856;2023-09-12T02:38:28;27.07;;;15.00;;
5042;SDS011;2540;50.928;6.856;2023-09-12T02:40:54;29.63;;;13.90;;
5042;SDS011;2540;50.928;6.856;2023-09-12T02:43:20;28.30;;;14.73;;
5042;SDS011;2540;50.928;6.856;2023-09-12T02:45:46;33.70;;;14.67;;
5042;SDS011;2540;50.928;6.856;2023-09-12T02:48:11;31.90;;;15.13;;
5042;SDS011;2540;50.928;6.856;2023-09-12T02:50:37;27.40;;;13.43;;
5042;SDS011;2540;50.928;6.856;2023-09-12T02:53:02;21.70;;;13.30;;
5042;SDS011;2540;50.928;6.856;2023-09-12T02:55:28;31.97;;;14.37;;
5042;SDS011;2540;50.928;6.856;2023-09-12T02:57:53;29.30;;;13.63;;
5042;SDS011;2540;50.928;6.856;2023-09-12T03:00:19;29.17;;;12.33;;
5042;SDS011;2540;50.928;6.856;2023-09-12T03:02:44;25.37;;;13.13;;
5042;SDS011;2540;50.928;6.856;2023-09-12T03:05:10;21.50;;;13.13;;
5042;SDS011;2540;50.928;6.856;2023-09-12T03:07:35;31.00;;;13.67;;
5042;SDS011;2540;50.928;6.856;2023-09-12T03:10:01;23.13;;;13.57;;
5042;SDS011;2540;50.928;6.856;2023-09-12T03:12:26;29.20;;;14.43;;
5042;SDS011;2540;50.928;6.856;2023-09-12T03:14:52;25.40;;;14.10;;
5042;SDS011;2540;50.928;6.856;2023-09-12T03:17:17;23.40;;;13.63;;
5042;SDS011;2540;50.928;6.856;2023-09-12T03:19:42;25.07;;;13.93;;
5042;SDS011;2540;50.928;6.856;2023-09-12T03:22:08;25.33;;;13.73;;
5042;SDS011;2540;50.928;6.856;2023-09-12T03:24:33;31.80;;;14.63;;
5042;SDS011;2540;50.928;6.856;2023-09-12T03:26:58;33.23;;;13.47;;
5042;SDS011;2540;50.928;6.856;2023-09-12T03:29:24;26.27;;;12.93;;
5042;SDS011;2540;50.928;6.856;2023-09-12T03:31:49;24.10;;;13.50;;
5042;SDS011;2540;50.928;6.856;2023-09-12T03:34:14;23.43;;;12.90;;
5042;SDS011;2540;50.928;6.856;2023-09-12T03:36:40;23.90;;;14.67;;
5042;SDS011;2540;50.928;6.856;2023-09-12T03:39:05;27.17;;;12.50;;
5042;SDS011;2540;50.928;6.856;2023-09-12T03:41:33;25.30;;;10.90;;
5042;SDS011;2540;50.928;6.856;2023-09-12T03:43:59;25.20;;;13.00;;
5042;SDS011;2540;50.928;6.856;2023-09-12T03:46:25;20.70;;;11.47;;
5042;SDS011;2540;50.928;6.856;2023-09-12T03:48:50;27.40;;;11.73;;
5042;SDS011;2540;50.928;6.856;2023-09-12T03:51:15;25.97;;;12.10;;
5042;SDS011;2540;50.928;6.856;2023-09-12T03:53:41;23.40;;;10.23;;
5042;SDS011;2540;50.928;6.856;2023-09-12T03:56:06;21.27;;;10.60;;
5042;SDS011;2540;50.928;6.856;2023-09-12T03:58:33;17.63;;;10.60;;
5042;SDS011;2540;50.928;6.856;2023-09-12T04:00:58;17.60;;;10.30;;
5042;SDS011;2540;50.928;6.856;2023-09-12T04:03:24;18.10;;;10.70;;
5042;SDS011;2540;50.928;6.856;2023-09-12T04:05:49;14.90;;;9.57;;
5042;SDS011;2540;50.928;6.856;2023-09-12T04:08:15;15.10;;;9.10;;
5042;SDS011;2540;50.928;6.856;2023-09-12T04:10:41;16.20;;;8.87;;
5042;SDS011;2540;50.928;6.856;2023-09-12T04:13:06;16.60;;;8.27;;
5042;SDS011;2540;50.928;6.856;2023-09-12T04:15:31;14.03;;;8.40;;
5042;SDS011;2540;50.928;6.856;2023-09-12T04:17:57;13.80;;;7.77;;
5042;SDS011;2540;50.928;6.856;2023-09-12T04:20:22;11.63;;;6.90;;
5042;SDS011;2540;50.928;6.856;2023-09-12T04:22:48;14.93;;;8.60;;
5042;SDS011;2540;50.928;6.856;2023-09-12T04:25:13;11.50;;;7.37;;
5042;SDS011;2540;50.928;6.856;2023-09-12T04:27:38;11.10;;;7.73;;
5042;SDS011;2540;50.928;6.856;2023-09-12T04:30:04;15.43;;;7.40;;
5042;SDS011;2540;50.928;6.856;2023-09-12T04:32:30;10.80;;;6.50;;
5042;SDS011;2540;50.928;6.856;2023-09-12T04:34:55;13.53;;;6.03;;
5042;SDS011;2540;50.928;6.856;2023-09-12T04:37:21;13.10;;;6.20;;
5042;SDS011;2540;50.928;6.856;2023-09-12T04:39:46;11.20;;;6.93;;
5042;SDS011;2540;50.928;6.856;2023-09-12T04:42:11;12.90;;;6.37;;
5042;SDS011;2540;50.928;6.856;2023-09-12T04:44:38;10.33;;;6.50;;
5042;SDS011;2540;50.928;6.856;2023-09-12T04:47:04;12.47;;;6.20;;
5042;SDS011;2540;50.928;6.856;2023-09-12T04:49:29;9.60;;;6.27;;
5042;SDS011;2540;50.928;6.856;2023-09-12T04:51:55;12.13;;;6.60;;
5042;SDS011;2540;50.928;6.856;2023-09-12T04:54:20;11.80;;;6.47;;
5042;SDS011;2540;50.928;6.856;2023-09-12T04:56:45;12.90;;;7.00;;
5042;SDS011;2540;50.928;6.856;2023-09-12T04:59:12;10.27;;;6.80;;
5042;SDS011;2540;50.928;6.856;2023-09-12T05:01:37;12.77;;;6.70;;
5042;SDS011;2540;50.928;6.856;2023-09-12T05:04:02;7.83;;;5.87;;
5042;SDS011;2540;50.928;6.856;2023-09-12T05:06:28;12.00;;;6.13;;
5042;SDS011;2540;50.928;6.856;2023-09-12T05:08:53;12.13;;;6.80;;
5042;SDS011;2540;50.928;6.856;2023-09-12T05:11:19;9.67;;;5.67;;
5042;SDS011;2540;50.928;6.856;2023-09-12T05:13:44;11.57;;;5.90;;
5042;SDS011;2540;50.928;6.856;2023-09-12T05:16:09;9.40;;;6.37;;
5042;SDS011;2540;50.928;6.856;2023-09-12T05:18:35;11.40;;;6.20;;
5042;SDS011;2540;50.928;6.856;2023-09-12T05:21:00;11.83;;;7.20;;
5042;SDS011;2540;50.928;6.856;2023-09-12T05:23:25;9.80;;;6.40;;
5042;SDS011;2540;50.928;6.856;2023-09-12T05:25:51;10.83;;;5.40;;
5042;SDS011;2540;50.928;6.856;2023-09-12T05:28:16;10.80;;;6.40;;
5042;SDS011;2540;50.928;6.856;2023-09-12T05:30:42;10.00;;;6.47;;
5042;SDS011;2540;50.928;6.856;2023-09-12T05:33:08;10.60;;;6.40;;
5042;SDS011;2540;50.928;6.856;2023-09-12T05:35:33;11.13;;;7.17;;
5042;SDS011;2540;50.928;6.856;2023-09-12T05:37:58;9.00;;;6.10;;
5042;SDS011;2540;50.928;6.856;2023-09-12T05:40:24;9.00;;;6.30;;
5042;SDS011;2540;50.928;6.856;2023-09-12T05:42:49;8.80;;;6.00;;
5042;SDS011;2540;50.928;6.856;2023-09-12T05:45:14;13.37;;;7.23;;
5042;SDS011;2540;50.928;6.856;2023-09-12T05:47:40;12.10;;;6.50;;
5042;SDS011;2540;50.928;6.856;2023-09-12T05:50:05;8.37;;;5.67;;
5042;SDS011;2540;50.928;6.856;2023-09-12T05:52:32;13.07;;;5.43;;
5042;SDS011;2540;50.928;6.856;2023-09-12T05:54:57;10.03;;;5.33;;
5042;SDS011;2540;50.928;6.856;2023-09-12T05:57:23;10.97;;;6.67;;
5042;SDS011;2540;50.928;6.856;2023-09-12T05:59:48;9.47;;;7.00;;
5042;SDS011;2540;50.928;6.856;2023-09-12T06:02:14;9.77;;;6.57;;
5042;SDS011;2540;50.928;6.856;2023-09-12T06:04:39;9.70;;;6.23;;
5042;SDS011;2540;50.928;6.856;2023-09-12T06:07:04;8.90;;;5.90;;
5042;SDS011;2540;50.928;6.856;2023-09-12T06:09:30;8.70;;;6.00;;
5042;SDS011;2540;50.928;6.856;2023-09-12T06:11:55;9.27;;;5.43;;
5042;SDS011;2540;50.928;6.856;2023-09-12T06:14:21;12.10;;;7.73;;
5042;SDS011;2540;50.928;6.856;2023-09-12T06:16:46;17.20;;;8.40;;
5042;SDS011;2540;50.928;6.856;2023-09-12T06:19:11;13.70;;;8.37;;
5042;SDS011;2540;50.928;6.856;2023-09-12T06:21:37;20.10;;;9.93;;
5042;SDS011;2540;50.928;6.856;2023-09-12T06:26:36;23.20;;;13.37;;
5042;SDS011;2540;50.928;6.856;2023-09-12T06:29:01;29.50;;;14.97;;
5042;SDS011;2540;50.928;6.856;2023-09-12T06:31:27;29.27;;;14.40;;
5042;SDS011;2540;50.928;6.856;2023-09-12T06:33:53;35.67;;;17.40;;
5042;SDS011;2540;50.928;6.856;2023-09-12T06:36:18;25.97;;;14.60;;
5042;SDS011;2540;50.928;6.856;2023-09-12T06:38:43;27.83;;;15.17;;
5042;SDS011;2540;50.928;6.856;2023-09-12T06:41:09;30.03;;;16.27;;
5042;SDS011;2540;50.928;6.856;2023-09-12T06:43:34;32.30;;;15.50;;
5042;SDS011;2540;50.928;6.856;2023-09-12T06:45:59;33.37;;;13.60;;
5042;SDS011;2540;50.928;6.856;2023-09-12T06:48:24;32.47;;;15.60;;
5042;SDS011;2540;50.928;6.856;2023-09-12T06:50:50;28.77;;;15.03;;
5042;SDS011;2540;50.928;6.856;2023-09-12T06:53:15;26.30;;;14.47;;
5042;SDS011;2540;50.928;6.856;2023-09-12T06:55:40;29.80;;;16.00;;
5042;SDS011;2540;50.928;6.856;2023-09-12T06:58:06;26.50;;;14.07;;
5042;SDS011;2540;50.928;6.856;2023-09-12T07:00:32;25.67;;;14.10;;
5042;SDS011;2540;50.928;6.856;2023-09-12T07:02:58;28.00;;;14.00;;
5042;SDS011;2540;50.928;6.856;2023-09-12T07:05:23;28.40;;;14.03;;
5042;SDS011;2540;50.928;6.856;2023-09-12T07:07:48;25.50;;;13.13;;
5042;SDS011;2540;50.928;6.856;2023-09-12T07:10:14;25.03;;;11.73;;
5042;SDS011;2540;50.928;6.856;2023-09-12T07:12:39;21.40;;;10.17;;
5042;SDS011;2540;50.928;6.856;2023-09-12T07:15:05;21.83;;;11.70;;
5042;SDS011;2540;50.928;6.856;2023-09-12T07:17:30;18.77;;;10.70;;
5042;SDS011;2540;50.928;6.856;2023-09-12T07:19:56;25.77;;;11.03;;
5042;SDS011;2540;50.928;6.856;2023-09-12T07:22:21;20.20;;;10.50;;
5042;SDS011;2540;50.928;6.856;2023-09-12T07:24:46;21.90;;;9.50;;
5042;SDS011;2540;50.928;6.856;2023-09-12T07:27:12;17.07;;;10.43;;
5042;SDS011;2540;50.928;6.856;2023-09-12T07:29:37;16.83;;;9.37;;
5042;SDS011;2540;50.928;6.856;2023-09-12T07:32:03;16.50;;;9.60;;
5042;SDS011;2540;50.928;6.856;2023-09-12T07:34:28;18.97;;;10.03;;
5042;SDS011;2540;50.928;6.856;2023-09-12T07:36:54;21.23;;;10.03;;
5042;SDS011;2540;50.928;6.856;2023-09-12T07:39:19;15.70;;;9.10;;
5042;SDS011;2540;50.928;6.856;2023-09-12T07:41:44;17.23;;;9.37;;
5042;SDS011;2540;50.928;6.856;2023-09-12T07:44:10;16.80;;;10.03;;
5042;SDS011;2540;50.928;6.856;2023-09-12T07:46:37;14.00;;;8.40;;
5042;SDS011;2540;50.928;6.856;2023-09-12T07:49:02;13.40;;;9.30;;
5042;SDS011;2540;50.928;6.856;2023-09-12T07:51:28;17.13;;;9.07;;
5042;SDS011;2540;50.928;6.856;2023-09-12T07:53:53;16.03;;;9.80;;
5042;SDS011;2540;50.928;6.856;2023-09-12T07:56:18;14.27;;;9.77;;
5042;SDS011;2540;50.928;6.856;2023-09-12T07:58:43;16.60;;;9.37;;
5042;SDS011;2540;50.928;6.856;2023-09-12T08:01:09;12.17;;;8.60;;
5042;SDS011;2540;50.928;6.856;2023-09-12T08:03:35;17.63;;;8.80;;
5042;SDS011;2540;50.928;6.856;2023-09-12T08:06:01;12.67;;;8.43;;
5042;SDS011;2540;50.928;6.856;2023-09-12T08:08:27;13.10;;;8.60;;
5042;SDS011;2540;50.928;6.856;2023-09-12T08:10:53;16.17;;;8.80;;
5042;SDS011;2540;50.928;6.856;2023-09-12T08:13:18;13.30;;;7.73;;
5042;SDS011;2540;50.928;6.856;2023-09-12T08:15:43;11.10;;;7.67;;
5042;SDS011;2540;50.928;6.856;2023-09-12T08:18:09;21.40;;;8.90;;
5042;SDS011;2540;50.928;6.856;2023-09-12T08:20:35;13.33;;;8.33;;
5042;SDS011;2540;50.928;6.856;2023-09-12T08:23:00;19.00;;;8.43;;
5042;SDS011;2540;50.928;6.856;2023-09-12T08:25:25;12.07;;;8.10;;
5042;SDS011;2540;50.928;6.856;2023-09-12T08:27:52;13.53;;;7.90;;
5042;SDS011;2540;50.928;6.856;2023-09-12T08:30:17;13.17;;;8.37;;
5042;SDS011;2540;50.928;6.856;2023-09-12T08:32:43;9.70;;;7.20;;
5042;SDS011;2540;50.928;6.856;2023-09-12T08:35:11;11.53;;;6.80;;
5042;SDS011;2540;50.928;6.856;2023-09-12T08:37:38;10.80;;;6.90;;
5042;SDS011;2540;50.928;6.856;2023-09-12T08:40:05;11.07;;;7.40;;
5042;SDS011;2540;50.928;6.856;2023-09-12T08:42:32;12.70;;;6.73;;
5042;SDS011;2540;50.928;6.856;2023-09-12T08:45:03;9.43;;;7.20;;
5042;SDS011;2540;50.928;6.856;2023-09-12T08:47:29;13.20;;;6.90;;
5042;SDS011;2540;50.928;6.856;2023-09-12T08:49:54;9.30;;;6.57;;
5042;SDS011;2540;50.928;6.856;2023-09-12T08:52:20;10.40;;;6.50;;
5042;SDS011;2540;50.928;6.856;2023-09-12T08:54:46;10.60;;;6.93;;
5042;SDS011;2540;50.928;6.856;2023-09-12T08:57:14;10.50;;;6.43;;
5042;SDS011;2540;50.928;6.856;2023-09-12T08:59:41;9.40;;;6.40;;
5042;SDS011;2540;50.928;6.856;2023-09-12T09:02:08;9.33;;;6.37;;
5042;SDS011;2540;50.928;6.856;2023-09-12T09:04:34;10.90;;;6.73;;
5042;SDS011;2540;50.928;6.856;2023-09-12T09:07:00;15.60;;;6.90;;
5042;SDS011;2540;50.928;6.856;2023-09-12T09:09:26;10.97;;;6.27;;
5042;SDS011;2540;50.928;6.856;2023-09-12T09:11:53;10.70;;;6.30;;
5042;SDS011;2540;50.928;6.856;2023-09-12T09:14:19;11.20;;;6.00;;
5042;SDS011;2540;50.928;6.856;2023-09-12T09:16:44;8.73;;;5.70;;
5042;SDS011;2540;50.928;6.856;2023-09-12T09:19:09;12.87;;;6.90;;
5042;SDS011;2540;50.928;6.856;2023-09-12T09:21:35;10.80;;;6.77;;
5042;SDS011;2540;50.928;6.856;2023-09-12T09:24:05;12.17;;;5.50;;
5042;SDS011;2540;50.928;6.856;2023-09-12T09:26:50;10.13;;;5.87;;
5042;SDS011;2540;50.928;6.856;2023-09-12T09:29:18;11.50;;;5.13;;
5042;SDS011;2540;50.928;6.856;2023-09-12T09:31:45;8.33;;;5.30;;
5042;SDS011;2540;50.928;6.856;2023-09-12T09:34:18;8.03;;;5.63;;
5042;SDS011;2540;50.928;6.856;2023-09-12T09:36:48;7.97;;;5.73;;
5042;SDS011;2540;50.928;6.856;2023-09-12T09:39:18;9.77;;;5.70;;
5042;SDS011;2540;50.928;6.856;2023-09-12T09:41:48;13.80;;;5.73;;
5042;SDS011;2540;50.928;6.856;2023-09-12T09:44:14;9.10;;;5.83;;
5042;SDS011;2540;50.928;6.856;2023-09-12T09:46:42;10.60;;;6.30;;
5042;SDS011;2540;50.928;6.856;2023-09-12T09:49:10;7.93;;;5.53;;
5042;SDS011;2540;50.928;6.856;2023-09-12T09:51:42;10.20;;;5.97;;
5042;SDS011;2540;50.928;6.856;2023-09-12T09:54:08;8.67;;;4.93;;
5042;SDS011;2540;50.928;6.856;2023-09-12T09:56:39;12.43;;;5.77;;
5042;SDS011;2540;50.928;6.856;2023-09-12T09:59:17;9.30;;;5.63;;
5042;SDS011;2540;50.928;6.856;2023-09-12T10:01:44;9.00;;;4.97;;
5042;SDS011;2540;50.928;6.856;2023-09-12T10:04:10;9.33;;;5.23;;
5042;SDS011;2540;50.928;6.856;2023-09-12T10:06:36;7.60;;;5.30;;
5042;SDS011;2540;50.928;6.856;2023-09-12T10:09:05;10.83;;;4.80;;
5042;SDS011;2540;50.928;6.856;2023-09-12T10:11:31;6.23;;;4.83;;
5042;SDS011;2540;50.928;6.856;2023-09-12T10:14:02;6.87;;;4.30;;
5042;SDS011;2540;50.928;6.856;2023-09-12T10:16:50;5.47;;;3.80;;
5042;SDS011;2540;50.928;6.856;2023-09-12T10:19:17;5.83;;;4.00;;
5042;SDS011;2540;50.928;6.856;2023-09-12T10:21:49;10.27;;;4.47;;
5042;SDS011;2540;50.928;6.856;2023-09-12T10:24:15;11.03;;;5.00;;
5042;SDS011;2540;50.928;6.856;2023-09-12T10:26:41;6.97;;;5.10;;
5042;SDS011;2540;50.928;6.856;2023-09-12T10:29:10;7.63;;;4.77;;
5042;SDS011;2540;50.928;6.856;2023-09-12T10:31:37;7.23;;;4.83;;
5042;SDS011;2540;50.928;6.856;2023-09-12T10:34:03;7.07;;;4.83;;
5042;SDS011;2540;50.928;6.856;2023-09-12T10:36:31;6.63;;;4.63;;
5042;SDS011;2540;50.928;6.856;2023-09-12T10:38:57;7.07;;;4.30;;
5042;SDS011;2540;50.928;6.856;2023-09-12T10:41:24;7.17;;;4.70;;
5042;SDS011;2540;50.928;6.856;2023-09-12T10:43:50;8.40;;;4.90;;
5042;SDS011;2540;50.928;6.856;2023-09-12T10:46:18;8.57;;;4.63;;
5042;SDS011;2540;50.928;6.856;2023-09-12T10:48:43;5.63;;;4.13;;
5042;SDS011;2540;50.928;6.856;2023-09-12T10:51:09;6.87;;;4.20;;
5042;SDS011;2540;50.928;6.856;2023-09-12T10:53:35;6.23;;;3.73;;
5042;SDS011;2540;50.928;6.856;2023-09-12T10:56:01;4.83;;;3.77;;
5042;SDS011;2540;50.928;6.856;2023-09-12T11:01:43;4.20;;;3.30;;
5042;SDS011;2540;50.928;6.856;2023-09-12T11:06:45;8.43;;;4.40;;
5042;SDS011;2540;50.928;6.856;2023-09-12T11:11:39;10.67;;;3.70;;
5042;SDS011;2540;50.928;6.856;2023-09-12T11:14:06;8.80;;;4.07;;
5042;SDS011;2540;50.928;6.856;2023-09-12T11:16:32;6.63;;;4.03;;
5042;SDS011;2540;50.928;6.856;2023-09-12T11:19:16;4.57;;;3.80;;
5042;SDS011;2540;50.928;6.856;2023-09-12T11:21:49;4.80;;;3.80;;
5042;SDS011;2540;50.928;6.856;2023-09-12T11:24:16;6.70;;;4.30;;
5042;SDS011;2540;50.928;6.856;2023-09-12T11:27:01;4.50;;;3.40;;
5042;SDS011;2540;50.928;6.856;2023-09-12T11:29:30;5.40;;;3.30;;
5042;SDS011;2540;50.928;6.856;2023-09-12T11:32:01;6.10;;;3.60;;
5042;SDS011;2540;50.928;6.856;2023-09-12T11:34:28;9.87;;;3.60;;
5042;SDS011;2540;50.928;6.856;2023-09-12T11:36:59;6.80;;;3.60;;
5042;SDS011;2540;50.928;6.856;2023-09-12T11:39:46;8.23;;;4.07;;
5042;SDS011;2540;50.928;6.856;2023-09-12T11:42:11;4.80;;;3.10;;
5042;SDS011;2540;50.928;6.856;2023-09-12T11:44:38;7.70;;;4.67;;
5042;SDS011;2540;50.928;6.856;2023-09-12T11:47:03;6.40;;;3.97;;
5042;SDS011;2540;50.928;6.856;2023-09-12T11:49:38;4.70;;;3.57;;
5042;SDS011;2540;50.928;6.856;2023-09-12T11:52:08;13.67;;;4.20;;
5042;SDS011;2540;50.928;6.856;2023-09-12T11:54:34;5.87;;;3.30;;
5042;SDS011;2540;50.928;6.856;2023-09-12T11:56:59;5.23;;;3.77;;
5042;SDS011;2540;50.928;6.856;2023-09-12T11:59:27;5.80;;;4.43;;
5042;SDS011;2540;50.928;6.856;2023-09-12T12:01:52;8.60;;;4.57;;
5042;SDS011;2540;50.928;6.856;2023-09-12T12:04:20;6.90;;;4.20;;
5042;SDS011;2540;50.928;6.856;2023-09-12T12:06:46;4.73;;;3.30;;
5042;SDS011;2540;50.928;6.856;2023-09-12T12:09:12;6.03;;;3.00;;
5042;SDS011;2540;50.928;6.856;2023-09-12T12:11:39;6.57;;;4.17;;
5042;SDS011;2540;50.928;6.856;2023-09-12T12:16:37;7.60;;;4.03;;
5042;SDS011;2540;50.928;6.856;2023-09-12T12:19:02;6.63;;;3.87;;
5042;SDS011;2540;50.928;6.856;2023-09-12T12:21:27;5.37;;;3.80;;
5042;SDS011;2540;50.928;6.856;2023-09-12T12:23:59;5.70;;;3.50;;
5042;SDS011;2540;50.928;6.856;2023-09-12T12:26:25;8.93;;;4.10;;
5042;SDS011;2540;50.928;6.856;2023-09-12T12:28:52;5.00;;;3.40;;
5042;SDS011;2540;50.928;6.856;2023-09-12T12:31:17;7.60;;;4.00;;
5042;SDS011;2540;50.928;6.856;2023-09-12T12:33:49;4.47;;;3.47;;
5042;SDS011;2540;50.928;6.856;2023-09-12T12:36:14;7.50;;;4.40;;
5042;SDS011;2540;50.928;6.856;2023-09-12T12:38:40;4.57;;;3.33;;
5042;SDS011;2540;50.928;6.856;2023-09-12T12:41:08;5.47;;;3.50;;
5042;SDS011;2540;50.928;6.856;2023-09-12T12:43:33;7.43;;;4.17;;
5042;SDS011;2540;50.928;6.856;2023-09-12T12:45:59;5.73;;;4.00;;
5042;SDS011;2540;50.928;6.856;2023-09-12T12:51:00;4.97;;;3.30;;
5042;SDS011;2540;50.928;6.856;2023-09-12T12:53:38;5.80;;;3.30;;
5042;SDS011;2540;50.928;6.856;2023-09-12T12:56:11;3.97;;;3.20;;
5042;SDS011;2540;50.928;6.856;2023-09-12T12:58:51;3.60;;;3.27;;
5042;SDS011;2540;50.928;6.856;2023-09-12T13:01:17;7.57;;;3.60;;
5042;SDS011;2540;50.928;6.856;2023-09-12T13:03:43;3.80;;;3.27;;
5042;SDS011;2540;50.928;6.856;2023-09-12T13:06:10;16.33;;;4.57;;
5042;SDS011;2540;50.928;6.856;2023-09-12T13:08:42;7.97;;;4.23;;
5042;SDS011;2540;50.928;6.856;2023-09-12T13:11:09;5.70;;;4.03;;
5042;SDS011;2540;50.928;6.856;2023-09-12T13:13:35;5.70;;;3.60;;
5042;SDS011;2540;50.928;6.856;2023-09-12T13:16:01;7.73;;;3.73;;
5042;SDS011;2540;50.928;6.856;2023-09-12T13:18:29;6.47;;;3.90;;
5042;SDS011;2540;50.928;6.856;2023-09-12T13:20:56;6.30;;;3.67;;
5042;SDS011;2540;50.928;6.856;2023-09-12T13:23:21;5.73;;;4.27;;
5042;SDS011;2540;50.928;6.856;2023-09-12T13:25:46;6.30;;;3.33;;
5042;SDS011;2540;50.928;6.856;2023-09-12T13:28:11;6.53;;;4.10;;
5042;SDS011;2540;50.928;6.856;2023-09-12T13:30:37;12.63;;;3.33;;
5042;SDS011;2540;50.928;6.856;2023-09-12T13:33:02;4.43;;;3.60;;
5042;SDS011;2540;50.928;6.856;2023-09-12T13:35:28;4.53;;;3.80;;
5042;SDS011;2540;50.928;6.856;2023-09-12T13:37:54;8.73;;;3.80;;
5042;SDS011;2540;50.928;6.856;2023-09-12T13:40:19;6.00;;;4.40;;
5042;SDS011;2540;50.928;6.856;2023-09-12T13:42:45;5.17;;;3.90;;
5042;SDS011;2540;50.928;6.856;2023-09-12T13:45:11;8.30;;;3.77;;
5042;SDS011;2540;50.928;6.856;2023-09-12T13:47:36;5.57;;;4.20;;
5042;SDS011;2540;50.928;6.856;2023-09-12T13:50:02;7.00;;;3.80;;
5042;SDS011;2540;50.928;6.856;2023-09-12T13:52:28;6.17;;;3.57;;
5042;SDS011;2540;50.928;6.856;2023-09-12T13:54:53;7.20;;;4.13;;
5042;SDS011;2540;50.928;6.856;2023-09-12T13:57:19;4.70;;;3.50;;
5042;SDS011;2540;50.928;6.856;2023-09-12T13:59:44;6.77;;;3.77;;
5042;SDS011;2540;50.928;6.856;2023-09-12T14:02:09;5.07;;;3.53;;
5042;SDS011;2540;50.928;6.856;2023-09-12T14:04:35;5.30;;;3.70;;
5042;SDS011;2540;50.928;6.856;2023-09-12T14:07:00;7.37;;;3.87;;
5042;SDS011;2540;50.928;6.856;2023-09-12T14:09:25;5.10;;;4.10;;
5042;SDS011;2540;50.928;6.856;2023-09-12T14:11:51;7.57;;;4.07;;
5042;SDS011;2540;50.928;6.856;2023-09-12T14:14:16;4.40;;;3.37;;
5042;SDS011;2540;50.928;6.856;2023-09-12T14:16:42;6.30;;;3.53;;
5042;SDS011;2540;50.928;6.856;2023-09-12T14:19:08;5.97;;;4.23;;
5042;SDS011;2540;50.928;6.856;2023-09-12T14:21:33;4.40;;;3.77;;
5042;SDS011;2540;50.928;6.856;2023-09-12T14:23:58;3.90;;;3.10;;
5042;SDS011;2540;50.928;6.856;2023-09-12T14:26:24;4.57;;;3.50;;
5042;SDS011;2540;50.928;6.856;2023-09-12T14:28:49;4.97;;;3.87;;
5042;SDS011;2540;50.928;6.856;2023-09-12T14:31:15;7.13;;;3.70;;
5042;SDS011;2540;50.928;6.856;2023-09-12T14:33:41;5.27;;;4.00;;
5042;SDS011;2540;50.928;6.856;2023-09-12T14:36:07;4.90;;;4.07;;
5042;SDS011;2540;50.928;6.856;2023-09-12T14:38:33;5.27;;;4.00;;
5042;SDS011;2540;50.928;6.856;2023-09-12T14:40:58;4.70;;;3.80;;
5042;SDS011;2540;50.928;6.856;2023-09-12T14:43:24;4.80;;;3.20;;
5042;SDS011;2540;50.928;6.856;2023-09-12T14:45:49;7.07;;;4.30;;
5042;SDS011;2540;50.928;6.856;2023-09-12T14:48:14;6.20;;;4.07;;
5042;SDS011;2540;50.928;6.856;2023-09-12T14:50:40;6.20;;;4.57;;
5042;SDS011;2540;50.928;6.856;2023-09-12T14:53:05;6.40;;;3.80;;
5042;SDS011;2540;50.928;6.856;2023-09-12T14:55:31;7.57;;;4.40;;
5042;SDS011;2540;50.928;6.856;2023-09-12T14:57:57;7.40;;;4.20;;
5042;SDS011;2540;50.928;6.856;2023-09-12T15:00:23;5.10;;;3.67;;
5042;SDS011;2540;50.928;6.856;2023-09-12T15:02:49;8.33;;;4.00;;
5042;SDS011;2540;50.928;6.856;2023-09-12T15:05:15;6.50;;;3.87;;
5042;SDS011;2540;50.928;6.856;2023-09-12T15:07:40;6.60;;;4.00;;
5042;SDS011;2540;50.928;6.856;2023-09-12T15:10:06;6.40;;;4.70;;
5042;SDS011;2540;50.928;6.856;2023-09-12T15:12:31;13.00;;;4.80;;
5042;SDS011;2540;50.928;6.856;2023-09-12T15:14:56;9.00;;;4.50;;
5042;SDS011;2540;50.928;6.856;2023-09-12T15:17:22;7.67;;;4.70;;